Time;durP1;ratioP1;P1;durP2;ratioP2;P2;SDS_P1;SDS_P2;PMS_P1;PMS_P2;Temp;Humidity;BMP_temperature;BMP_pressure;BME280_temperature;BME280_humidity;BME280_pressure;Samples;Min_cycle;Max_cycle;Signal;HPM_P1;HPM_P2
2022/03/05 00:00:13;;;;;;;10.57;4.75;;;1.20;72.00;;;;;;4989057;28;20030;-74
2022/03/05 00:02:39;;;;;;;9.88;5.00;;;1.20;72.00;;;;;;4985584;28;20375;-74
2022/03/05 00:05:06;;;;;;;10.18;4.80;;;1.10;72.00;;;;;;4984905;28;20022;-74
2022/03/05 00:07:32;;;;;;;10.50;4.95;;;1.10;71.70;;;;;;5004827;28;20096;-74
2022/03/05 00:09:58;;;;;;;9.93;4.60;;;1.10;72.10;;;;;;4987545;28;20080;-74
2022/03/05 00:12:23;;;;;;;10.63;4.57;;;1.00;72.70;;;;;;4988545;28;20031;-74
2022/03/05 00:14:49;;;;;;;9.68;4.75;;;1.00;72.60;;;;;;4991095;28;20450;-74
2022/03/05 00:17:15;;;;;;;12.23;4.80;;;1.00;72.90;;;;;;4990930;28;20030;-74
2022/03/05 00:19:40;;;;;;;12.35;4.55;;;1.00;72.90;;;;;;4990813;28;20391;-74
2022/03/05 00:22:06;;;;;;;11.52;4.82;;;1.00;73.20;;;;;;4993776;28;20041;-74
2022/03/05 00:24:32;;;;;;;12.32;4.85;;;1.00;73.00;;;;;;4985125;28;20026;-75
2022/03/05 00:26:57;;;;;;;11.82;4.93;;;1.00;73.30;;;;;;4987264;28;20434;-74
2022/03/05 00:29:24;;;;;;;12.35;5.28;;;0.90;73.30;;;;;;4987173;28;20038;-72
2022/03/05 00:31:50;;;;;;;10.85;5.07;;;0.90;73.50;;;;;;4991663;28;20364;-73
2022/03/05 00:34:16;;;;;;;12.52;4.65;;;0.90;73.50;;;;;;4990194;28;20121;-75
2022/03/05 00:36:42;;;;;;;10.85;5.00;;;0.90;73.80;;;;;;4986129;28;20141;-73
2022/03/05 00:39:07;;;;;;;10.88;4.63;;;0.90;74.00;;;;;;4987236;28;20026;-75
2022/03/05 00:41:33;;;;;;;10.27;4.00;;;0.90;74.10;;;;;;4990481;28;20428;-74
2022/03/05 00:43:59;;;;;;;11.05;4.68;;;0.80;74.40;;;;;;4987350;28;20035;-75
2022/03/05 00:46:25;;;;;;;10.60;4.85;;;0.80;74.50;;;;;;4996259;28;20034;-74
2022/03/05 00:48:52;;;;;;;9.38;4.45;;;0.80;75.00;;;;;;4987813;28;20025;-74
2022/03/05 00:51:18;;;;;;;10.38;4.68;;;0.70;75.30;;;;;;4991854;28;20030;-75
2022/03/05 00:53:43;;;;;;;12.85;5.68;;;0.70;75.00;;;;;;4985555;28;20092;-74
2022/03/05 00:56:09;;;;;;;12.15;5.20;;;0.70;75.60;;;;;;4997999;28;20530;-74
2022/03/05 00:58:34;;;;;;;10.57;5.07;;;0.70;75.70;;;;;;4986788;28;20392;-74
2022/03/05 01:01:00;;;;;;;11.63;5.55;;;0.70;75.40;;;;;;4988431;28;20057;-74
2022/03/05 01:03:26;;;;;;;11.65;4.57;;;0.70;76.10;;;;;;4990889;28;20026;-73
2022/03/05 01:05:53;;;;;;;13.43;5.72;;;0.60;76.00;;;;;;4991203;28;20022;-74
2022/03/05 01:08:19;;;;;;;14.52;5.05;;;0.60;76.60;;;;;;4989359;28;20479;-74
2022/03/05 01:10:45;;;;;;;13.95;4.75;;;0.60;76.80;;;;;;4988928;28;20031;-73
2022/03/05 01:13:10;;;;;;;11.13;4.93;;;0.50;77.30;;;;;;4987513;28;20056;-74
2022/03/05 01:15:36;;;;;;;17.85;5.72;;;0.60;76.90;;;;;;4986144;28;20054;-73
2022/03/05 01:18:02;;;;;;;9.82;4.60;;;0.50;77.10;;;;;;5003907;28;20672;-74
2022/03/05 01:20:28;;;;;;;10.13;4.88;;;0.50;77.00;;;;;;4989949;28;20030;-73
2022/03/05 01:22:53;;;;;;;10.48;5.25;;;0.50;77.00;;;;;;4991274;28;20030;-74
2022/03/05 01:25:19;;;;;;;10.63;4.70;;;0.60;77.40;;;;;;4986113;28;20469;-74
2022/03/05 01:27:45;;;;;;;8.30;4.55;;;0.50;77.30;;;;;;4988201;28;20522;-74
2022/03/05 01:30:11;;;;;;;10.52;5.22;;;0.50;77.60;;;;;;4988478;28;20034;-74
2022/03/05 01:32:37;;;;;;;12.45;5.78;;;0.40;77.60;;;;;;4986021;28;20095;-73
2022/03/05 01:35:04;;;;;;;11.27;5.82;;;0.30;78.30;;;;;;4985008;28;20479;-74
2022/03/05 01:37:30;;;;;;;11.15;5.10;;;0.30;78.20;;;;;;4986773;28;20029;-73
2022/03/05 01:39:55;;;;;;;12.75;4.72;;;0.30;78.50;;;;;;4984497;28;20023;-74
2022/03/05 01:42:23;;;;;;;9.70;4.88;;;0.30;78.10;;;;;;4988015;28;20081;-74
2022/03/05 01:44:49;;;;;;;10.00;5.10;;;0.30;78.30;;;;;;5000942;28;20031;-74
2022/03/05 01:47:14;;;;;;;9.48;5.05;;;0.20;79.00;;;;;;4990407;28;20360;-74
2022/03/05 01:49:40;;;;;;;11.00;4.57;;;0.20;79.10;;;;;;4987196;28;20085;-73
2022/03/05 01:52:06;;;;;;;12.57;5.50;;;0.20;78.70;;;;;;4988203;28;20153;-74
2022/03/05 01:54:32;;;;;;;10.60;4.70;;;0.30;78.90;;;;;;4987220;28;20566;-75
2022/03/05 01:56:59;;;;;;;11.00;5.45;;;0.30;78.90;;;;;;4992321;28;20072;-74
2022/03/05 01:59:25;;;;;;;12.25;4.70;;;0.30;80.00;;;;;;4992275;28;20026;-73
2022/03/05 02:01:51;;;;;;;11.93;4.95;;;0.30;79.20;;;;;;4995173;28;20027;-73
2022/03/05 02:04:17;;;;;;;18.45;6.20;;;0.30;79.60;;;;;;4998752;28;20023;-74
2022/03/05 02:06:42;;;;;;;12.98;5.15;;;0.30;79.50;;;;;;4990166;28;20191;-74
2022/03/05 02:09:08;;;;;;;11.07;4.82;;;0.30;79.00;;;;;;4988572;28;20039;-74
2022/03/05 02:11:34;;;;;;;10.63;5.97;;;0.30;79.20;;;;;;4985697;28;20058;-75
2022/03/05 02:13:59;;;;;;;9.68;4.72;;;0.30;79.30;;;;;;4988124;28;20510;-73
2022/03/05 02:16:26;;;;;;;16.08;5.07;;;0.30;79.70;;;;;;4988068;28;20077;-73
2022/03/05 02:18:56;;;;;;;9.45;4.15;;;0.20;80.10;;;;;;4989389;28;20029;-73
2022/03/05 02:21:26;;;;;;;10.73;4.82;;;0.20;79.80;;;;;;4987775;28;20616;-73
2022/03/05 02:23:53;;;;;;;11.07;4.70;;;0.20;80.10;;;;;;4985483;28;20097;-73
2022/03/05 02:26:18;;;;;;;11.75;5.20;;;0.10;80.30;;;;;;4986247;28;20077;-73
2022/03/05 02:28:44;;;;;;;12.15;4.88;;;0.10;80.70;;;;;;4987118;28;20026;-73
2022/03/05 02:31:10;;;;;;;11.60;5.07;;;0.10;80.20;;;;;;4984259;28;20503;-73
2022/03/05 02:33:36;;;;;;;12.27;5.38;;;0.10;80.40;;;;;;4987146;28;20062;-73
2022/03/05 02:36:04;;;;;;;12.60;4.90;;;0.10;80.90;;;;;;4985170;28;20101;-73
2022/03/05 02:38:30;;;;;;;13.93;5.68;;;0.10;81.20;;;;;;4986836;28;20428;-73
2022/03/05 02:40:55;;;;;;;12.15;5.40;;;0.10;81.20;;;;;;4988463;28;20014;-73
2022/03/05 02:43:22;;;;;;;10.00;4.78;;;0.10;81.30;;;;;;4983152;28;20109;-73
2022/03/05 02:45:50;;;;;;;12.93;5.38;;;0.00;81.50;;;;;;4995273;28;20025;-72
2022/03/05 02:48:17;;;;;;;11.63;4.85;;;0.00;81.90;;;;;;4988813;28;20082;-72
2022/03/05 02:50:44;;;;;;;12.00;5.38;;;0.10;82.60;;;;;;4987848;28;20467;-73
2022/03/05 02:53:10;;;;;;;15.70;6.07;;;0.00;82.70;;;;;;4984358;28;20038;-73
2022/03/05 02:55:37;;;;;;;13.35;5.70;;;0.00;83.00;;;;;;4984296;28;20450;-73
2022/03/05 02:58:03;;;;;;;12.77;6.30;;;0.00;83.50;;;;;;4986060;28;20034;-73
2022/03/05 03:00:28;;;;;;;13.52;6.15;;;0.00;83.70;;;;;;4986456;28;20050;-72
2022/03/05 03:02:54;;;;;;;15.23;6.50;;;0.00;84.50;;;;;;4986466;28;20463;-73
2022/03/05 03:05:21;;;;;;;13.07;6.28;;;-0.10;85.30;;;;;;4987195;28;20030;-73
2022/03/05 03:07:47;;;;;;;11.13;5.75;;;-0.10;85.70;;;;;;4986223;28;20026;-72
2022/03/05 03:10:15;;;;;;;13.80;6.63;;;-0.10;85.70;;;;;;4989079;28;20430;-73
2022/03/05 03:12:41;;;;;;;16.05;6.65;;;-0.10;85.90;;;;;;4989603;28;20479;-74
2022/03/05 03:15:09;;;;;;;14.20;6.20;;;-0.10;86.00;;;;;;4989267;28;20125;-72
2022/03/05 03:17:43;;;;;;;14.88;6.18;;;-0.10;86.60;;;;;;4985656;28;20438;-73
2022/03/05 03:20:10;;;;;;;16.98;6.70;;;-0.10;86.60;;;;;;5005099;28;20443;-73
2022/03/05 03:22:36;;;;;;;13.15;6.95;;;-0.10;87.00;;;;;;5005756;22;20184;-73
2022/03/05 03:25:03;;;;;;;14.75;6.95;;;-0.20;87.00;;;;;;4989826;28;20057;-73
2022/03/05 03:27:29;;;;;;;13.70;7.20;;;-0.20;86.80;;;;;;5005532;28;20030;-73
2022/03/05 03:29:54;;;;;;;14.57;6.90;;;-0.20;87.20;;;;;;5002908;28;20056;-73
2022/03/05 03:32:20;;;;;;;14.23;6.55;;;-0.20;87.10;;;;;;4986881;28;20025;-73
2022/03/05 03:34:46;;;;;;;14.90;6.95;;;-0.20;87.50;;;;;;4988064;28;20409;-72
2022/03/05 03:37:11;;;;;;;14.15;6.80;;;-0.20;87.20;;;;;;4985226;28;20030;-72
2022/03/05 03:39:37;;;;;;;13.32;6.13;;;-0.20;87.10;;;;;;5010717;28;20022;-73
2022/03/05 03:42:03;;;;;;;22.75;8.25;;;-0.20;87.20;;;;;;5007416;28;20021;-72
2022/03/05 03:44:29;;;;;;;16.55;7.45;;;-0.20;86.90;;;;;;5003921;28;20044;-72
2022/03/05 03:46:56;;;;;;;13.35;6.10;;;-0.20;86.90;;;;;;5007359;28;20056;-72
2022/03/05 03:49:22;;;;;;;14.98;7.22;;;-0.20;86.80;;;;;;5009405;28;20034;-74
2022/03/05 03:51:48;;;;;;;14.13;7.00;;;-0.30;87.00;;;;;;5009586;28;20111;-74
2022/03/05 03:54:14;;;;;;;13.80;6.03;;;-0.30;87.70;;;;;;5007663;28;20049;-74
2022/03/05 03:56:40;;;;;;;16.98;6.45;;;-0.30;87.60;;;;;;5009354;28;20042;-74
2022/03/05 03:59:05;;;;;;;15.00;6.90;;;-0.20;87.50;;;;;;5008411;28;20053;-74
2022/03/05 04:01:31;;;;;;;15.32;6.90;;;-0.20;87.30;;;;;;5006113;28;20017;-74
2022/03/05 04:03:57;;;;;;;19.08;6.63;;;-0.30;87.40;;;;;;5005713;28;20022;-74
2022/03/05 04:06:23;;;;;;;15.35;6.30;;;-0.30;87.90;;;;;;5005658;28;20025;-74
2022/03/05 04:08:48;;;;;;;15.25;6.85;;;-0.30;89.20;;;;;;5011247;28;20033;-74
2022/03/05 04:11:18;;;;;;;14.85;6.68;;;-0.30;88.60;;;;;;5011373;28;20226;-74
2022/03/05 04:13:45;;;;;;;15.45;6.93;;;-0.30;89.30;;;;;;4992421;28;20061;-74
2022/03/05 04:16:11;;;;;;;18.80;8.32;;;-0.30;89.90;;;;;;4991979;28;20479;-74
2022/03/05 04:18:38;;;;;;;17.55;8.75;;;-0.30;90.10;;;;;;4994047;28;20022;-74
2022/03/05 04:21:06;;;;;;;19.15;8.20;;;-0.30;90.60;;;;;;5009608;28;20038;-74
2022/03/05 04:23:32;;;;;;;20.73;9.50;;;-0.30;90.70;;;;;;5008838;28;20022;-73
2022/03/05 04:25:58;;;;;;;23.08;10.65;;;-0.30;91.20;;;;;;4987907;28;20037;-73
2022/03/05 04:28:23;;;;;;;21.60;9.60;;;-0.40;91.30;;;;;;5007575;28;20088;-73
2022/03/05 04:30:49;;;;;;;23.73;9.85;;;-0.40;91.80;;;;;;5004466;28;20113;-72
2022/03/05 04:33:15;;;;;;;20.50;10.40;;;-0.40;92.40;;;;;;5004773;28;20041;-73
2022/03/05 04:35:41;;;;;;;23.77;10.73;;;-0.40;93.10;;;;;;5009350;28;20109;-72
2022/03/05 04:38:07;;;;;;;22.88;10.57;;;-0.40;93.40;;;;;;4986427;28;20118;-72
2022/03/05 04:40:33;;;;;;;24.73;10.55;;;-0.40;93.60;;;;;;5005691;28;20030;-72
2022/03/05 04:42:59;;;;;;;24.98;10.65;;;-0.50;94.00;;;;;;5006002;28;20505;-73
2022/03/05 04:45:26;;;;;;;27.77;11.80;;;-0.50;94.40;;;;;;4989757;28;20037;-73
2022/03/05 04:47:52;;;;;;;24.40;11.57;;;-0.50;95.30;;;;;;4986068;28;20137;-73
2022/03/05 04:50:18;;;;;;;26.20;11.27;;;-0.60;95.50;;;;;;5008915;28;20127;-73
2022/03/05 04:52:44;;;;;;;29.30;12.15;;;-0.60;96.00;;;;;;5007969;28;20038;-73
2022/03/05 04:55:09;;;;;;;25.25;10.52;;;-0.60;96.30;;;;;;5003777;28;20044;-74
2022/03/05 04:57:35;;;;;;;26.23;11.43;;;-0.50;96.50;;;;;;5005841;28;20072;-74
2022/03/05 05:00:01;;;;;;;25.42;10.98;;;-0.50;96.60;;;;;;5003705;28;20200;-74
2022/03/05 05:02:27;;;;;;;26.08;11.02;;;-0.60;96.80;;;;;;5007210;28;20018;-73
2022/03/05 05:04:52;;;;;;;28.55;12.07;;;-0.60;97.30;;;;;;4993548;28;20029;-73
2022/03/05 05:07:18;;;;;;;25.75;11.80;;;-0.60;97.40;;;;;;4991340;28;20022;-74
2022/03/05 05:09:44;;;;;;;25.65;11.52;;;-0.60;97.50;;;;;;5002487;28;20037;-72
2022/03/05 05:12:10;;;;;;;28.02;11.93;;;-0.60;97.70;;;;;;5007589;28;20026;-73
2022/03/05 05:14:36;;;;;;;25.25;10.98;;;-0.50;97.90;;;;;;5005080;28;20026;-72
2022/03/05 05:17:02;;;;;;;28.98;11.82;;;-0.60;98.00;;;;;;5004075;28;20382;-74
2022/03/05 05:19:27;;;;;;;25.05;11.38;;;-0.60;98.30;;;;;;4992873;28;20026;-74
2022/03/05 05:21:59;;;;;;;27.88;12.13;;;-0.70;98.80;;;;;;5007358;28;20026;-73
2022/03/05 05:24:27;;;;;;;25.77;11.05;;;-0.70;99.20;;;;;;5003246;28;20496;-73
2022/03/05 05:26:53;;;;;;;22.27;10.60;;;-0.70;99.40;;;;;;4986441;28;20022;-75
2022/03/05 05:29:19;;;;;;;24.02;11.00;;;-0.70;98.90;;;;;;5002196;28;20403;-73
2022/03/05 05:31:45;;;;;;;25.15;10.50;;;-0.70;98.60;;;;;;4986768;28;20063;-72
2022/03/05 05:34:11;;;;;;;26.17;10.20;;;-0.70;98.60;;;;;;5005084;28;20080;-73
2022/03/05 05:36:38;;;;;;;24.05;10.05;;;-0.60;98.50;;;;;;5010677;28;20483;-73
2022/03/05 05:39:08;;;;;;;27.95;11.65;;;-0.60;98.30;;;;;;5009134;28;20363;-73
2022/03/05 05:41:35;;;;;;;24.83;11.85;;;-0.60;98.40;;;;;;4996517;28;20117;-74
2022/03/05 05:44:02;;;;;;;26.95;11.75;;;-0.70;98.60;;;;;;5003316;28;20037;-73
2022/03/05 05:46:27;;;;;;;25.35;11.07;;;-0.80;99.20;;;;;;5005175;28;20406;-73
2022/03/05 05:48:54;;;;;;;62.45;19.17;;;-0.80;99.90;;;;;;5013152;28;20018;-73
2022/03/05 05:51:20;;;;;;;38.10;13.10;;;-0.80;99.70;;;;;;5005408;28;20440;-73
2022/03/05 05:53:45;;;;;;;27.83;11.57;;;-0.80;99.80;;;;;;5007385;28;20058;-74
2022/03/05 05:56:11;;;;;;;25.42;11.65;;;-0.80;99.90;;;;;;5000243;28;20073;-74
2022/03/05 05:58:36;;;;;;;43.15;15.77;;;-0.80;99.90;;;;;;4986244;28;20576;-74
2022/03/05 06:01:02;;;;;;;35.40;13.95;;;-0.80;99.70;;;;;;5006281;28;20033;-74
2022/03/05 06:03:28;;;;;;;26.27;12.45;;;-0.80;99.90;;;;;;4995562;28;20028;-73
2022/03/05 06:05:53;;;;;;;27.02;11.52;;;-0.90;99.90;;;;;;5002556;28;20069;-74
2022/03/05 06:08:19;;;;;;;24.88;10.80;;;-0.90;99.90;;;;;;5007142;28;20021;-74
2022/03/05 06:10:44;;;;;;;23.45;10.48;;;-1.00;99.90;;;;;;5011625;28;20101;-73
2022/03/05 06:13:10;;;;;;;21.30;8.27;;;-1.00;99.90;;;;;;5011193;28;20030;-74
2022/03/05 06:15:36;;;;;;;19.45;9.63;;;-1.00;99.90;;;;;;5006503;28;20037;-74
2022/03/05 06:18:02;;;;;;;18.65;9.43;;;-1.00;99.90;;;;;;4988206;28;20023;-74
2022/03/05 06:20:27;;;;;;;20.55;8.95;;;-1.00;99.90;;;;;;5003838;28;20060;-73
2022/03/05 06:22:53;;;;;;;26.25;10.98;;;-1.00;99.90;;;;;;4990850;28;20098;-75
2022/03/05 06:25:19;;;;;;;25.63;11.05;;;-1.00;99.90;;;;;;4994989;28;20054;-74
2022/03/05 06:27:45;;;;;;;18.92;9.23;;;-1.10;99.90;;;;;;5000915;28;20109;-74
2022/03/05 06:30:12;;;;;;;26.05;10.55;;;-1.10;99.90;;;;;;5007405;28;20165;-75
2022/03/05 06:32:38;;;;;;;26.75;14.38;;;-1.10;99.90;;;;;;5003606;28;20514;-75
2022/03/05 06:35:05;;;;;;;21.70;9.85;;;-1.10;99.90;;;;;;5006254;28;20211;-74
2022/03/05 06:37:31;;;;;;;22.33;9.70;;;-1.00;99.90;;;;;;5001993;28;20065;-75
2022/03/05 06:39:57;;;;;;;22.50;9.88;;;-1.10;99.90;;;;;;4991847;28;20026;-75
2022/03/05 06:42:23;;;;;;;21.75;9.75;;;-1.10;99.90;;;;;;4999149;28;20026;-73
2022/03/05 06:44:50;;;;;;;20.67;10.25;;;-1.10;99.90;;;;;;5001842;28;20332;-75
2022/03/05 06:47:16;;;;;;;22.15;9.45;;;-1.00;99.90;;;;;;5003831;28;20681;-76
2022/03/05 06:49:41;;;;;;;21.52;9.88;;;-1.00;99.90;;;;;;5000478;28;20052;-75
2022/03/05 06:52:08;;;;;;;25.45;10.85;;;-1.00;99.90;;;;;;5002427;28;20475;-76
2022/03/05 06:54:33;;;;;;;23.17;10.30;;;-1.00;99.90;;;;;;4984507;28;20038;-72
2022/03/05 06:56:59;;;;;;;22.23;9.93;;;-1.00;99.90;;;;;;5006603;28;20128;-72
2022/03/05 06:59:25;;;;;;;22.25;9.85;;;-0.90;99.90;;;;;;4986091;28;20080;-75
2022/03/05 07:01:50;;;;;;;24.50;10.65;;;-0.90;99.90;;;;;;5003527;28;20033;-74
2022/03/05 07:04:16;;;;;;;23.38;10.90;;;-0.90;99.90;;;;;;4989004;28;20446;-74
2022/03/05 07:06:42;;;;;;;24.98;11.18;;;-0.80;99.90;;;;;;4987611;28;20064;-74
2022/03/05 07:09:07;;;;;;;30.80;10.98;;;-0.70;99.90;;;;;;5007609;28;20076;-74
2022/03/05 07:11:33;;;;;;;30.08;11.20;;;-0.70;99.90;;;;;;4991316;28;20025;-75
2022/03/05 07:13:59;;;;;;;23.88;10.35;;;-0.70;99.90;;;;;;5005406;28;20041;-75
2022/03/05 07:16:25;;;;;;;25.27;11.18;;;-0.60;99.90;;;;;;5001439;28;20030;-74
2022/03/05 07:18:51;;;;;;;25.83;11.02;;;-0.60;99.90;;;;;;5009135;28;20028;-74
2022/03/05 07:21:16;;;;;;;25.08;11.40;;;-0.50;99.90;;;;;;5003100;28;20048;-75
2022/03/05 07:23:42;;;;;;;22.17;10.45;;;-0.40;99.90;;;;;;4986914;28;20124;-72
2022/03/05 07:26:08;;;;;;;26.13;11.10;;;-0.30;99.90;;;;;;5009660;28;20014;-73
2022/03/05 07:28:33;;;;;;;24.17;11.23;;;-0.20;99.90;;;;;;5005071;28;20034;-72
2022/03/05 07:30:59;;;;;;;24.65;11.30;;;-0.20;99.90;;;;;;5002322;28;20069;-74
2022/03/05 07:33:26;;;;;;;24.77;11.55;;;-0.10;99.90;;;;;;5001946;28;20411;-74
2022/03/05 07:35:52;;;;;;;25.40;11.73;;;-0.10;99.90;;;;;;5002073;28;20032;-72
2022/03/05 07:38:17;;;;;;;26.95;11.63;;;-0.10;99.90;;;;;;4999381;28;20026;-75
2022/03/05 07:40:43;;;;;;;32.03;12.50;;;0.00;99.90;;;;;;5010814;28;20541;-74
2022/03/05 07:43:09;;;;;;;29.35;13.70;;;0.00;99.90;;;;;;5010067;28;20357;-73
2022/03/05 07:45:35;;;;;;;25.90;11.73;;;0.10;99.90;;;;;;4994862;28;20441;-74
2022/03/05 07:48:00;;;;;;;30.17;12.57;;;0.20;99.70;;;;;;5012578;28;20119;-74
2022/03/05 07:50:26;;;;;;;23.95;11.52;;;0.30;99.80;;;;;;5012297;28;20451;-76
2022/03/05 07:52:52;;;;;;;25.45;11.50;;;0.30;99.70;;;;;;5011622;28;20034;-74
2022/03/05 07:55:19;;;;;;;23.55;11.48;;;0.40;99.40;;;;;;5012634;28;20052;-74
2022/03/05 07:57:45;;;;;;;27.73;11.18;;;0.40;99.40;;;;;;5006190;28;20689;-73
2022/03/05 08:00:11;;;;;;;28.90;12.00;;;0.50;99.10;;;;;;5008385;28;20109;-73
2022/03/05 08:02:36;;;;;;;24.20;11.50;;;0.60;99.20;;;;;;5007452;28;20433;-73
2022/03/05 08:05:02;;;;;;;29.65;12.77;;;0.60;99.30;;;;;;5005406;28;20426;-74
2022/03/05 08:07:28;;;;;;;28.75;12.65;;;0.70;99.20;;;;;;5011569;28;20394;-73
2022/03/05 08:09:53;;;;;;;25.92;12.13;;;0.70;99.40;;;;;;5010621;28;20394;-73
2022/03/05 08:12:19;;;;;;;27.17;12.07;;;0.80;98.90;;;;;;5007704;28;20030;-76
2022/03/05 08:14:45;;;;;;;29.27;12.98;;;0.90;99.00;;;;;;4998014;28;20071;-74
2022/03/05 08:17:12;;;;;;;27.20;12.43;;;1.00;98.90;;;;;;4990261;28;20053;-73
2022/03/05 08:19:37;;;;;;;28.90;11.98;;;1.10;98.60;;;;;;4992401;28;20058;-73
2022/03/05 08:22:03;;;;;;;28.00;12.85;;;1.10;98.30;;;;;;5011318;28;20109;-73
2022/03/05 08:24:29;;;;;;;28.73;12.50;;;1.20;98.20;;;;;;5009174;28;20026;-73
2022/03/05 08:26:55;;;;;;;26.85;12.23;;;1.30;98.20;;;;;;5012445;28;20344;-73
2022/03/05 08:29:20;;;;;;;31.65;12.82;;;1.40;98.10;;;;;;5014157;28;20037;-73
2022/03/05 08:31:46;;;;;;;30.05;12.25;;;1.40;97.90;;;;;;5005585;28;20518;-74
2022/03/05 08:34:11;;;;;;;25.27;11.98;;;1.50;97.80;;;;;;5015519;28;20049;-73
2022/03/05 08:36:37;;;;;;;26.77;12.38;;;1.60;97.30;;;;;;4995005;28;20025;-73
2022/03/05 08:39:03;;;;;;;28.95;11.75;;;1.60;97.50;;;;;;5000634;28;20037;-73
2022/03/05 08:41:29;;;;;;;25.65;12.38;;;1.80;97.30;;;;;;5008697;28;20027;-72
2022/03/05 08:43:55;;;;;;;31.20;11.93;;;1.80;96.30;;;;;;4994183;28;20026;-72
2022/03/05 08:46:20;;;;;;;21.00;10.07;;;1.90;96.20;;;;;;4992338;28;20117;-72
2022/03/05 08:48:46;;;;;;;23.45;9.63;;;2.00;94.20;;;;;;5012913;28;20080;-72
2022/03/05 08:51:12;;;;;;;20.67;9.82;;;2.20;93.10;;;;;;4996857;28;20029;-72
2022/03/05 08:53:38;;;;;;;20.58;9.45;;;2.30;92.30;;;;;;5008828;28;20018;-72
2022/03/05 08:56:04;;;;;;;20.80;9.13;;;2.40;92.50;;;;;;5008207;28;20450;-72
2022/03/05 08:58:30;;;;;;;20.33;9.93;;;2.50;92.20;;;;;;5010423;28;20029;-73
2022/03/05 09:00:59;;;;;;;18.42;7.78;;;2.60;91.00;;;;;;4996845;28;20088;-72
2022/03/05 09:03:25;;;;;;;19.60;9.18;;;2.70;90.60;;;;;;4993721;28;20081;-72
2022/03/05 09:05:51;;;;;;;16.92;8.55;;;2.70;89.80;;;;;;5007776;28;20029;-73
2022/03/05 09:08:17;;;;;;;14.93;7.22;;;2.80;88.60;;;;;;5007323;28;20034;-73
2022/03/05 09:10:43;;;;;;;17.02;7.70;;;2.90;87.20;;;;;;4992281;28;20037;-73
2022/03/05 09:13:09;;;;;;;17.15;7.80;;;3.00;85.40;;;;;;5010042;28;20060;-72
2022/03/05 09:15:35;;;;;;;13.32;7.22;;;3.00;82.60;;;;;;4996741;28;20430;-73
2022/03/05 09:18:00;;;;;;;16.52;7.40;;;3.10;81.60;;;;;;5005650;28;20038;-73
2022/03/05 09:20:26;;;;;;;16.00;6.88;;;3.10;81.50;;;;;;4992108;28;20402;-73
2022/03/05 09:22:52;;;;;;;17.50;7.38;;;3.20;80.50;;;;;;5010927;28;20033;-72
2022/03/05 09:25:18;;;;;;;18.92;8.45;;;3.40;80.10;;;;;;5008853;28;20027;-74
2022/03/05 09:27:45;;;;;;;15.40;6.53;;;3.40;80.50;;;;;;5010532;28;20497;-71
2022/03/05 09:30:11;;;;;;;15.77;7.28;;;3.40;78.70;;;;;;4989413;28;20325;-72
2022/03/05 09:32:37;;;;;;;15.15;6.78;;;3.50;78.40;;;;;;4997952;28;20026;-71
2022/03/05 09:35:03;;;;;;;13.43;6.90;;;3.50;76.40;;;;;;5006310;28;20041;-71
2022/03/05 09:37:30;;;;;;;13.15;6.25;;;3.50;75.30;;;;;;5007257;28;20483;-71
2022/03/05 09:39:59;;;;;;;12.15;6.05;;;3.60;75.60;;;;;;5003668;28;20029;-71
2022/03/05 09:42:25;;;;;;;13.95;6.65;;;3.70;74.90;;;;;;4992865;28;20026;-72
2022/03/05 09:44:51;;;;;;;14.27;6.47;;;3.70;73.50;;;;;;4995660;28;20029;-72
2022/03/05 09:47:17;;;;;;;14.50;6.38;;;3.70;73.60;;;;;;4995799;28;20044;-71
2022/03/05 09:49:43;;;;;;;17.98;7.53;;;3.80;72.60;;;;;;5010983;28;20037;-70
2022/03/05 09:52:10;;;;;;;16.90;8.80;;;3.70;72.20;;;;;;5005879;28;20050;-73
2022/03/05 09:54:36;;;;;;;16.02;6.80;;;3.80;72.50;;;;;;5002876;28;20100;-70
2022/03/05 09:57:09;;;;;;;14.25;6.72;;;3.80;72.60;;;;;;4985099;28;20092;-70
2022/03/05 09:59:34;;;;;;;14.65;6.63;;;3.90;70.40;;;;;;5008961;28;20033;-70
2022/03/05 10:02:00;;;;;;;15.90;7.13;;;3.90;71.50;;;;;;5007302;28;20030;-71
2022/03/05 10:04:26;;;;;;;13.18;6.50;;;3.90;71.00;;;;;;5007719;28;20033;-73
2022/03/05 10:07:08;;;;;;;12.60;6.55;;;4.00;72.00;;;;;;4998853;28;20026;-71
2022/03/05 10:09:34;;;;;;;14.88;7.15;;;4.10;70.20;;;;;;5002935;28;20571;-71
2022/03/05 10:11:59;;;;;;;12.68;6.07;;;4.10;69.30;;;;;;5007095;28;20092;-71
2022/03/05 10:14:25;;;;;;;11.57;5.78;;;4.20;69.10;;;;;;4986358;28;20097;-71
2022/03/05 10:17:00;;;;;;;11.40;6.25;;;4.30;68.60;;;;;;5003647;28;20026;-71
2022/03/05 10:19:26;;;;;;;15.35;6.53;;;4.30;68.20;;;;;;5006404;28;20049;-72
2022/03/05 10:22:08;;;;;;;12.68;6.13;;;4.30;67.50;;;;;;5009345;28;20475;-71
2022/03/05 10:24:35;;;;;;;9.25;4.82;;;4.30;67.50;;;;;;5005563;28;20077;-71
2022/03/05 10:27:01;;;;;;;12.07;5.15;;;4.40;64.50;;;;;;4993585;28;20045;-72
2022/03/05 10:29:35;;;;;;;12.05;5.70;;;4.50;65.40;;;;;;5007430;28;20053;-72
2022/03/05 10:32:04;;;;;;;11.02;5.95;;;4.50;65.50;;;;;;5004879;28;20029;-69
2022/03/05 10:34:52;;;;;;;11.15;5.25;;;4.60;66.20;;;;;;4987946;28;20038;-71
2022/03/05 10:37:19;;;;;;;11.98;5.55;;;4.60;64.50;;;;;;5003690;28;20057;-71
2022/03/05 10:39:49;;;;;;;10.80;5.32;;;4.60;65.30;;;;;;4991728;28;20053;-71
2022/03/05 10:42:15;;;;;;;12.23;5.57;;;4.60;65.10;;;;;;5002641;28;20461;-73
2022/03/05 10:44:41;;;;;;;10.90;5.78;;;4.60;64.70;;;;;;5009488;28;20471;-72
2022/03/05 10:47:07;;;;;;;10.57;4.90;;;4.70;63.90;;;;;;4991395;28;20032;-71
2022/03/05 10:49:38;;;;;;;8.40;4.25;;;4.60;62.30;;;;;;4990768;28;20430;-69
2022/03/05 10:52:06;;;;;;;9.70;4.38;;;4.60;62.50;;;;;;5006241;28;20096;-72
2022/03/05 10:54:39;;;;;;;9.75;4.72;;;4.50;61.50;;;;;;5005973;28;20048;-72
2022/03/05 10:57:18;;;;;;;9.25;4.38;;;4.50;61.40;;;;;;5008805;28;20025;-72
2022/03/05 10:59:46;;;;;;;8.40;4.55;;;4.60;61.80;;;;;;4990660;28;20026;-72
2022/03/05 11:02:14;;;;;;;11.02;5.25;;;4.60;62.20;;;;;;5008987;28;20482;-70
2022/03/05 11:04:42;;;;;;;11.98;4.75;;;4.60;62.20;;;;;;4990417;28;20113;-71
2022/03/05 11:07:09;;;;;;;8.50;4.85;;;4.70;61.90;;;;;;5006929;28;20084;-71
2022/03/05 11:09:37;;;;;;;9.18;4.13;;;4.70;60.80;;;;;;5006254;28;20392;-70
2022/03/05 11:12:04;;;;;;;11.18;5.50;;;4.80;60.60;;;;;;5003759;28;20502;-71
2022/03/05 11:14:29;;;;;;;10.05;4.85;;;4.80;61.00;;;;;;5011801;28;20108;-70
2022/03/05 11:16:56;;;;;;;10.45;5.25;;;4.80;61.00;;;;;;5005738;28;20140;-71
2022/03/05 11:19:23;;;;;;;9.88;4.68;;;4.80;61.20;;;;;;5005831;28;20471;-73
2022/03/05 11:21:49;;;;;;;10.10;5.35;;;4.80;61.60;;;;;;4996770;28;20056;-71
2022/03/05 11:24:18;;;;;;;8.80;4.72;;;4.80;60.50;;;;;;5005466;28;20065;-71
2022/03/05 11:26:47;;;;;;;6.60;3.58;;;4.90;60.90;;;;;;4986989;28;20428;-71
2022/03/05 11:29:17;;;;;;;9.35;4.25;;;5.10;59.60;;;;;;5006286;28;20022;-71
2022/03/05 11:31:46;;;;;;;11.13;5.30;;;5.00;59.50;;;;;;5005597;28;20124;-71
2022/03/05 11:34:13;;;;;;;8.32;4.15;;;5.00;60.30;;;;;;5004737;28;20030;-71
2022/03/05 11:36:39;;;;;;;8.32;4.40;;;5.00;59.80;;;;;;5007003;28;20026;-70
2022/03/05 11:39:15;;;;;;;9.68;4.93;;;5.00;59.30;;;;;;5006737;28;20639;-72
2022/03/05 11:41:55;;;;;;;9.40;4.57;;;5.10;59.20;;;;;;4989616;28;20041;-72
2022/03/05 11:44:28;;;;;;;12.30;4.75;;;5.10;58.30;;;;;;4987773;28;20026;-70
2022/03/05 11:47:18;;;;;;;10.80;5.40;;;4.90;58.20;;;;;;4993881;28;20105;-71
2022/03/05 11:49:56;;;;;;;10.68;4.65;;;4.90;58.60;;;;;;5005191;28;20157;-71
2022/03/05 11:52:23;;;;;;;8.05;4.50;;;4.90;59.10;;;;;;4988990;28;20041;-72
2022/03/05 11:55:14;;;;;;;9.30;4.80;;;5.00;59.10;;;;;;5006585;28;20030;-70
2022/03/05 11:58:06;;;;;;;8.82;4.95;;;5.00;58.30;;;;;;4990016;28;20033;-71
2022/03/05 12:00:34;;;;;;;8.38;4.95;;;4.90;58.80;;;;;;5001732;28;20058;-70
2022/03/05 12:03:02;;;;;;;13.23;5.90;;;4.90;59.00;;;;;;5011363;28;20017;-71
2022/03/05 12:05:44;;;;;;;11.80;5.63;;;5.00;59.50;;;;;;5007227;28;20022;-71
2022/03/05 12:08:13;;;;;;;12.38;5.97;;;5.00;59.40;;;;;;5005867;28;20018;-71
2022/03/05 12:10:39;;;;;;;11.98;6.05;;;4.90;58.10;;;;;;5005993;28;20033;-71
2022/03/05 12:13:07;;;;;;;14.23;5.97;;;5.00;59.00;;;;;;4990955;28;20030;-70
2022/03/05 12:15:41;;;;;;;11.15;5.47;;;5.00;59.50;;;;;;5008390;28;20109;-71
2022/03/05 12:18:12;;;;;;;12.07;6.07;;;5.10;59.50;;;;;;4998720;28;20037;-70
2022/03/05 12:20:40;;;;;;;11.18;5.97;;;5.20;59.80;;;;;;5012454;28;20033;-70
2022/03/05 12:23:11;;;;;;;11.48;6.05;;;5.10;60.10;;;;;;5003837;28;20033;-70
2022/03/05 12:25:44;;;;;;;9.95;5.80;;;5.20;60.50;;;;;;5005961;28;20028;-72
2022/03/05 12:28:25;;;;;;;12.05;6.35;;;5.10;60.20;;;;;;4993193;28;20049;-70
2022/03/05 12:30:58;;;;;;;14.68;6.80;;;5.00;61.10;;;;;;5011938;28;20038;-72
2022/03/05 12:33:24;;;;;;;12.40;6.90;;;5.10;61.90;;;;;;5006955;28;20061;-73
2022/03/05 12:35:50;;;;;;;12.75;7.22;;;5.10;62.20;;;;;;5005971;28;20433;-73
2022/03/05 12:38:18;;;;;;;15.38;7.18;;;5.20;62.40;;;;;;5007704;28;20029;-72